sensor_id;sensor_type;location;lat;lon;timestamp;temperature;humidity
28837;DHT22;50669;50.982;11.022;2023-01-28T00:01:14;1.80;99.90
28837;DHT22;50669;50.982;11.022;2023-01-28T00:03:42;1.80;99.90
28837;DHT22;50669;50.982;11.022;2023-01-28T00:06:11;1.80;99.90
28837;DHT22;50669;50.982;11.022;2023-01-28T00:08:37;1.90;99.90
28837;DHT22;50669;50.982;11.022;2023-01-28T00:11:04;1.90;99.90
28837;DHT22;50669;50.982;11.022;2023-01-28T00:13:31;1.90;99.90
28837;DHT22;50669;50.982;11.022;2023-01-28T00:15:59;1.90;99.90
28837;DHT22;50669;50.982;11.022;2023-01-28T00:18:26;1.90;99.90
28837;DHT22;50669;50.982;11.022;2023-01-28T00:21:05;1.90;99.90
28837;DHT22;50669;50.982;11.022;2023-01-28T00:23:33;1.90;99.90
28837;DHT22;50669;50.982;11.022;2023-01-28T00:26:01;1.80;99.90
28837;DHT22;50669;50.982;11.022;2023-01-28T00:28:29;1.90;99.90
28837;DHT22;50669;50.982;11.022;2023-01-28T00:30:55;1.90;99.90
28837;DHT22;50669;50.982;11.022;2023-01-28T00:33:23;1.90;99.90
28837;DHT22;50669;50.982;11.022;2023-01-28T00:36:02;1.90;99.90
28837;DHT22;50669;50.982;11.022;2023-01-28T00:38:28;1.90;99.90
28837;DHT22;50669;50.982;11.022;2023-01-28T00:41:09;1.90;99.90
28837;DHT22;50669;50.982;11.022;2023-01-28T00:43:39;1.90;99.90
28837;DHT22;50669;50.982;11.022;2023-01-28T00:46:06;1.90;99.90
28837;DHT22;50669;50.982;11.022;2023-01-28T00:48:33;1.90;99.90
28837;DHT22;50669;50.982;11.022;2023-01-28T00:51:01;1.90;99.90
28837;DHT22;50669;50.982;11.022;2023-01-28T00:53:27;1.90;99.90
28837;DHT22;50669;50.982;11.022;2023-01-28T00:55:55;1.90;99.90
28837;DHT22;50669;50.982;11.022;2023-01-28T00:58:21;1.90;99.90
28837;DHT22;50669;50.982;11.022;2023-01-28T01:00:49;1.90;99.90
28837;DHT22;50669;50.982;11.022;2023-01-28T01:03:18;1.90;99.90
28837;DHT22;50669;50.982;11.022;2023-01-28T01:05:46;1.90;99.90
28837;DHT22;50669;50.982;11.022;2023-01-28T01:08:12;1.90;99.90
28837;DHT22;50669;50.982;11.022;2023-01-28T01:10:38;1.90;99.90
28837;DHT22;50669;50.982;11.022;2023-01-28T01:13:05;1.90;99.90
28837;DHT22;50669;50.982;11.022;2023-01-28T01:15:31;1.90;99.90
28837;DHT22;50669;50.982;11.022;2023-01-28T01:17:57;1.90;99.90
28837;DHT22;50669;50.982;11.022;2023-01-28T01:20:26;1.90;99.90
28837;DHT22;50669;50.982;11.022;2023-01-28T01:22:52;1.90;99.90
28837;DHT22;50669;50.982;11.022;2023-01-28T01:25:19;1.90;99.90
28837;DHT22;50669;50.982;11.022;2023-01-28T01:27:47;1.90;99.90
28837;DHT22;50669;50.982;11.022;2023-01-28T01:30:14;1.90;99.90
28837;DHT22;50669;50.982;11.022;2023-01-28T01:32:40;2.00;99.90
28837;DHT22;50669;50.982;11.022;2023-01-28T01:35:08;2.00;99.90
28837;DHT22;50669;50.982;11.022;2023-01-28T01:37:37;2.00;99.90
28837;DHT22;50669;50.982;11.022;2023-01-28T01:40:03;1.90;99.90
28837;DHT22;50669;50.982;11.022;2023-01-28T01:42:32;1.90;99.90
28837;DHT22;50669;50.982;11.022;2023-01-28T01:49:58;1.80;99.90
28837;DHT22;50669;50.982;11.022;2023-01-28T01:52:30;1.80;99.90
28837;DHT22;50669;50.982;11.022;2023-01-28T01:55:00;1.80;99.90
28837;DHT22;50669;50.982;11.022;2023-01-28T01:57:31;1.80;99.90
28837;DHT22;50669;50.982;11.022;2023-01-28T02:00:02;1.80;99.90
28837;DHT22;50669;50.982;11.022;2023-01-28T02:02:40;1.80;99.90
28837;DHT22;50669;50.982;11.022;2023-01-28T02:05:10;1.80;99.90
28837;DHT22;50669;50.982;11.022;2023-01-28T02:07:36;1.80;99.90
28837;DHT22;50669;50.982;11.022;2023-01-28T02:10:04;1.80;99.90
28837;DHT22;50669;50.982;11.022;2023-01-28T02:12:36;1.90;99.90
28837;DHT22;50669;50.982;11.022;2023-01-28T02:15:09;1.90;99.90
28837;DHT22;50669;50.982;11.022;2023-01-28T02:17:39;1.80;99.90
28837;DHT22;50669;50.982;11.022;2023-01-28T02:20:13;1.90;99.90
28837;DHT22;50669;50.982;11.022;2023-01-28T02:28:36;1.90;99.90
28837;DHT22;50669;50.982;11.022;2023-01-28T02:30:44;1.90;99.90
28837;DHT22;50669;50.982;11.022;2023-01-28T02:33:30;1.90;99.90
28837;DHT22;50669;50.982;11.022;2023-01-28T02:36:06;1.90;99.90
28837;DHT22;50669;50.982;11.022;2023-01-28T02:38:40;1.80;99.90
28837;DHT22;50669;50.982;11.022;2023-01-28T02:41:13;1.80;99.90
28837;DHT22;50669;50.982;11.022;2023-01-28T02:43:45;1.80;99.90
28837;DHT22;50669;50.982;11.022;2023-01-28T02:49:36;1.80;99.90
28837;DHT22;50669;50.982;11.022;2023-01-28T02:58:40;1.80;99.90
28837;DHT22;50669;50.982;11.022;2023-01-28T03:06:32;1.80;99.90
28837;DHT22;50669;50.982;11.022;2023-01-28T03:09:05;1.80;99.90
28837;DHT22;50669;50.982;11.022;2023-01-28T03:14:55;1.80;99.90
28837;DHT22;50669;50.982;11.022;2023-01-28T03:20:49;1.70;99.90
28837;DHT22;50669;50.982;11.022;2023-01-28T03:23:45;1.70;99.90
28837;DHT22;50669;50.982;11.022;2023-01-28T03:26:31;1.70;99.90
28837;DHT22;50669;50.982;11.022;2023-01-28T03:29:18;1.70;99.90
28837;DHT22;50669;50.982;11.022;2023-01-28T03:32:04;1.70;99.90
28837;DHT22;50669;50.982;11.022;2023-01-28T03:34:49;1.70;99.90
28837;DHT22;50669;50.982;11.022;2023-01-28T03:37:34;1.70;99.90
28837;DHT22;50669;50.982;11.022;2023-01-28T03:40:04;1.70;99.90
28837;DHT22;50669;50.982;11.022;2023-01-28T03:42:31;1.70;99.90
28837;DHT22;50669;50.982;11.022;2023-01-28T03:44:57;1.80;99.90
28837;DHT22;50669;50.982;11.022;2023-01-28T03:47:28;1.80;99.90
28837;DHT22;50669;50.982;11.022;2023-01-28T03:49:55;1.80;99.90
28837;DHT22;50669;50.982;11.022;2023-01-28T03:52:24;1.70;99.90
28837;DHT22;50669;50.982;11.022;2023-01-28T03:54:50;1.70;99.90
28837;DHT22;50669;50.982;11.022;2023-01-28T03:57:19;1.60;99.90
28837;DHT22;50669;50.982;11.022;2023-01-28T03:59:48;1.60;99.90
28837;DHT22;50669;50.982;11.022;2023-01-28T04:02:18;1.60;99.90
28837;DHT22;50669;50.982;11.022;2023-01-28T04:04:46;1.60;99.90
28837;DHT22;50669;50.982;11.022;2023-01-28T04:07:13;1.60;99.90
28837;DHT22;50669;50.982;11.022;2023-01-28T04:09:40;1.60;99.90
28837;DHT22;50669;50.982;11.022;2023-01-28T04:12:09;1.60;99.90
28837;DHT22;50669;50.982;11.022;2023-01-28T04:14:37;1.60;99.90
28837;DHT22;50669;50.982;11.022;2023-01-28T04:17:04;1.60;99.90
28837;DHT22;50669;50.982;11.022;2023-01-28T04:19:34;1.60;99.90
28837;DHT22;50669;50.982;11.022;2023-01-28T04:22:06;1.50;99.90
28837;DHT22;50669;50.982;11.022;2023-01-28T04:24:32;1.50;99.90
28837;DHT22;50669;50.982;11.022;2023-01-28T04:27:00;1.50;99.90
28837;DHT22;50669;50.982;11.022;2023-01-28T04:29:25;1.50;99.90
28837;DHT22;50669;50.982;11.022;2023-01-28T04:31:53;1.50;99.90
28837;DHT22;50669;50.982;11.022;2023-01-28T04:34:19;1.50;99.90
28837;DHT22;50669;50.982;11.022;2023-01-28T04:36:45;1.50;99.90
28837;DHT22;50669;50.982;11.022;2023-01-28T04:39:13;1.50;99.90
28837;DHT22;50669;50.982;11.022;2023-01-28T04:41:41;1.50;99.90
28837;DHT22;50669;50.982;11.022;2023-01-28T04:44:09;1.50;99.90
28837;DHT22;50669;50.982;11.022;2023-01-28T04:46:34;1.50;99.90
28837;DHT22;50669;50.982;11.022;2023-01-28T04:49:00;1.50;99.90
28837;DHT22;50669;50.982;11.022;2023-01-28T04:51:27;1.50;99.90
28837;DHT22;50669;50.982;11.022;2023-01-28T04:53:55;1.60;99.90
28837;DHT22;50669;50.982;11.022;2023-01-28T04:56:23;1.60;99.90
28837;DHT22;50669;50.982;11.022;2023-01-28T04:58:51;1.60;99.90
28837;DHT22;50669;50.982;11.022;2023-01-28T05:01:19;1.60;99.90
28837;DHT22;50669;50.982;11.022;2023-01-28T05:03:44;1.60;99.90
28837;DHT22;50669;50.982;11.022;2023-01-28T05:06:10;1.60;99.90
28837;DHT22;50669;50.982;11.022;2023-01-28T05:08:36;1.60;99.90
28837;DHT22;50669;50.982;11.022;2023-01-28T05:11:01;1.50;99.90
28837;DHT22;50669;50.982;11.022;2023-01-28T05:13:27;1.50;99.90
28837;DHT22;50669;50.982;11.022;2023-01-28T05:15:55;1.50;99.90
28837;DHT22;50669;50.982;11.022;2023-01-28T05:18:23;1.50;99.90
28837;DHT22;50669;50.982;11.022;2023-01-28T05:20:48;1.50;99.90
28837;DHT22;50669;50.982;11.022;2023-01-28T05:23:14;1.50;99.90
28837;DHT22;50669;50.982;11.022;2023-01-28T05:25:40;1.50;99.90
28837;DHT22;50669;50.982;11.022;2023-01-28T05:28:08;1.50;99.90
28837;DHT22;50669;50.982;11.022;2023-01-28T05:30:37;1.50;99.90
28837;DHT22;50669;50.982;11.022;2023-01-28T05:33:03;1.50;99.90
28837;DHT22;50669;50.982;11.022;2023-01-28T05:35:28;1.50;99.90
28837;DHT22;50669;50.982;11.022;2023-01-28T05:37:54;1.50;99.90
28837;DHT22;50669;50.982;11.022;2023-01-28T05:40:20;1.40;99.90
28837;DHT22;50669;50.982;11.022;2023-01-28T05:42:45;1.40;99.90
28837;DHT22;50669;50.982;11.022;2023-01-28T05:45:11;1.40;99.90
28837;DHT22;50669;50.982;11.022;2023-01-28T05:47:37;1.40;99.90
28837;DHT22;50669;50.982;11.022;2023-01-28T05:50:04;1.30;99.90
28837;DHT22;50669;50.982;11.022;2023-01-28T05:52:30;1.40;99.90
28837;DHT22;50669;50.982;11.022;2023-01-28T05:54:56;1.30;99.90
28837;DHT22;50669;50.982;11.022;2023-01-28T05:57:28;1.30;99.90
28837;DHT22;50669;50.982;11.022;2023-01-28T05:59:56;1.40;99.90
28837;DHT22;50669;50.982;11.022;2023-01-28T06:02:22;1.40;99.90
28837;DHT22;50669;50.982;11.022;2023-01-28T06:04:50;1.40;99.90
28837;DHT22;50669;50.982;11.022;2023-01-28T06:07:15;1.40;99.90
28837;DHT22;50669;50.982;11.022;2023-01-28T06:09:45;1.40;99.90
28837;DHT22;50669;50.982;11.022;2023-01-28T06:12:13;1.40;99.90
28837;DHT22;50669;50.982;11.022;2023-01-28T06:14:38;1.30;99.90
28837;DHT22;50669;50.982;11.022;2023-01-28T06:17:06;1.40;99.90
28837;DHT22;50669;50.982;11.022;2023-01-28T06:19:32;1.40;99.90
28837;DHT22;50669;50.982;11.022;2023-01-28T06:21:57;1.40;99.90
28837;DHT22;50669;50.982;11.022;2023-01-28T06:24:25;1.30;99.90
28837;DHT22;50669;50.982;11.022;2023-01-28T06:26:51;1.30;99.90
28837;DHT22;50669;50.982;11.022;2023-01-28T06:29:17;1.30;99.90
28837;DHT22;50669;50.982;11.022;2023-01-28T06:31:42;1.30;99.90
28837;DHT22;50669;50.982;11.022;2023-01-28T06:34:09;1.30;99.90
28837;DHT22;50669;50.982;11.022;2023-01-28T06:36:35;1.30;99.90
28837;DHT22;50669;50.982;11.022;2023-01-28T06:39:03;1.30;99.90
28837;DHT22;50669;50.982;11.022;2023-01-28T06:41:29;1.30;99.90
28837;DHT22;50669;50.982;11.022;2023-01-28T06:43:55;1.30;99.90
28837;DHT22;50669;50.982;11.022;2023-01-28T06:46:20;1.30;99.90
28837;DHT22;50669;50.982;11.022;2023-01-28T06:48:49;1.30;99.90
28837;DHT22;50669;50.982;11.022;2023-01-28T06:51:14;1.20;99.90
28837;DHT22;50669;50.982;11.022;2023-01-28T06:53:40;1.20;99.90
28837;DHT22;50669;50.982;11.022;2023-01-28T06:56:06;1.30;99.90
28837;DHT22;50669;50.982;11.022;2023-01-28T06:58:35;1.30;99.90
28837;DHT22;50669;50.982;11.022;2023-01-28T07:01:03;1.30;99.90
28837;DHT22;50669;50.982;11.022;2023-01-28T07:03:29;1.30;99.90
28837;DHT22;50669;50.982;11.022;2023-01-28T07:05:54;1.30;99.90
28837;DHT22;50669;50.982;11.022;2023-01-28T07:08:20;1.30;99.90
28837;DHT22;50669;50.982;11.022;2023-01-28T07:10:46;1.30;99.90
28837;DHT22;50669;50.982;11.022;2023-01-28T07:13:13;1.30;99.90
28837;DHT22;50669;50.982;11.022;2023-01-28T07:15:39;1.30;99.90
28837;DHT22;50669;50.982;11.022;2023-01-28T07:18:07;1.30;99.90
28837;DHT22;50669;50.982;11.022;2023-01-28T07:20:35;1.30;99.90
28837;DHT22;50669;50.982;11.022;2023-01-28T07:23:03;1.30;99.90
28837;DHT22;50669;50.982;11.022;2023-01-28T07:25:31;1.30;99.90
28837;DHT22;50669;50.982;11.022;2023-01-28T07:27:59;1.30;99.90
28837;DHT22;50669;50.982;11.022;2023-01-28T07:30:25;1.30;99.90
28837;DHT22;50669;50.982;11.022;2023-01-28T07:32:58;1.30;99.90
28837;DHT22;50669;50.982;11.022;2023-01-28T07:35:24;1.30;99.90
28837;DHT22;50669;50.982;11.022;2023-01-28T07:37:57;1.20;99.90
28837;DHT22;50669;50.982;11.022;2023-01-28T07:40:24;1.20;99.90
28837;DHT22;50669;50.982;11.022;2023-01-28T07:42:52;1.20;99.90
28837;DHT22;50669;50.982;11.022;2023-01-28T07:45:20;1.30;99.90
28837;DHT22;50669;50.982;11.022;2023-01-28T07:48:00;1.30;99.90
28837;DHT22;50669;50.982;11.022;2023-01-28T07:50:28;1.30;99.90
28837;DHT22;50669;50.982;11.022;2023-01-28T07:52:55;1.30;99.90
28837;DHT22;50669;50.982;11.022;2023-01-28T07:55:21;1.30;99.90
28837;DHT22;50669;50.982;11.022;2023-01-28T07:57:51;1.30;99.90
28837;DHT22;50669;50.982;11.022;2023-01-28T08:00:18;1.30;99.90
28837;DHT22;50669;50.982;11.022;2023-01-28T08:02:47;1.30;99.90
28837;DHT22;50669;50.982;11.022;2023-01-28T08:05:18;1.30;99.90
28837;DHT22;50669;50.982;11.022;2023-01-28T08:07:44;1.40;99.90
28837;DHT22;50669;50.982;11.022;2023-01-28T08:10:14;1.30;99.90
28837;DHT22;50669;50.982;11.022;2023-01-28T08:12:57;1.30;99.90
28837;DHT22;50669;50.982;11.022;2023-01-28T08:15:23;1.30;99.90
28837;DHT22;50669;50.982;11.022;2023-01-28T08:17:50;1.30;99.90
28837;DHT22;50669;50.982;11.022;2023-01-28T08:20:16;1.30;99.90
28837;DHT22;50669;50.982;11.022;2023-01-28T08:22:44;1.30;99.90
28837;DHT22;50669;50.982;11.022;2023-01-28T08:25:09;1.40;99.90
28837;DHT22;50669;50.982;11.022;2023-01-28T08:27:35;1.30;99.90
28837;DHT22;50669;50.982;11.022;2023-01-28T08:30:01;1.30;99.90
28837;DHT22;50669;50.982;11.022;2023-01-28T08:32:28;1.30;99.90
28837;DHT22;50669;50.982;11.022;2023-01-28T08:34:54;1.40;99.90
28837;DHT22;50669;50.982;11.022;2023-01-28T08:37:22;1.40;99.90
28837;DHT22;50669;50.982;11.022;2023-01-28T08:39:48;1.40;99.90
28837;DHT22;50669;50.982;11.022;2023-01-28T08:42:14;1.40;99.90
28837;DHT22;50669;50.982;11.022;2023-01-28T08:44:40;1.50;99.90
28837;DHT22;50669;50.982;11.022;2023-01-28T08:47:05;1.50;99.90
28837;DHT22;50669;50.982;11.022;2023-01-28T08:49:31;1.50;99.90
28837;DHT22;50669;50.982;11.022;2023-01-28T08:51:57;1.60;99.90
28837;DHT22;50669;50.982;11.022;2023-01-28T08:54:22;1.60;99.90
28837;DHT22;50669;50.982;11.022;2023-01-28T08:56:48;1.70;99.90
28837;DHT22;50669;50.982;11.022;2023-01-28T08:59:18;1.70;99.90
28837;DHT22;50669;50.982;11.022;2023-01-28T09:01:45;1.70;99.90
28837;DHT22;50669;50.982;11.022;2023-01-28T09:04:11;1.80;99.90
28837;DHT22;50669;50.982;11.022;2023-01-28T09:06:37;1.80;99.90
28837;DHT22;50669;50.982;11.022;2023-01-28T09:09:03;1.70;99.90
28837;DHT22;50669;50.982;11.022;2023-01-28T09:11:28;1.70;99.90
28837;DHT22;50669;50.982;11.022;2023-01-28T09:13:56;1.70;99.90
28837;DHT22;50669;50.982;11.022;2023-01-28T09:16:24;1.80;99.90
28837;DHT22;50669;50.982;11.022;2023-01-28T09:18:51;1.90;99.90
28837;DHT22;50669;50.982;11.022;2023-01-28T09:21:18;1.90;99.90
28837;DHT22;50669;50.982;11.022;2023-01-28T09:23:45;2.00;99.90
28837;DHT22;50669;50.982;11.022;2023-01-28T09:26:11;1.90;99.90
28837;DHT22;50669;50.982;11.022;2023-01-28T09:28:39;1.90;99.90
28837;DHT22;50669;50.982;11.022;2023-01-28T09:31:11;1.90;99.90
28837;DHT22;50669;50.982;11.022;2023-01-28T09:33:39;1.90;99.90
28837;DHT22;50669;50.982;11.022;2023-01-28T09:36:11;1.90;99.90
28837;DHT22;50669;50.982;11.022;2023-01-28T09:38:42;1.80;99.90
28837;DHT22;50669;50.982;11.022;2023-01-28T09:41:26;1.80;99.90
28837;DHT22;50669;50.982;11.022;2023-01-28T09:47:14;1.80;99.90
28837;DHT22;50669;50.982;11.022;2023-01-28T09:49:47;1.80;99.90
28837;DHT22;50669;50.982;11.022;2023-01-28T09:52:18;1.70;99.90
28837;DHT22;50669;50.982;11.022;2023-01-28T09:55:04;1.70;99.90
28837;DHT22;50669;50.982;11.022;2023-01-28T09:57:46;1.70;99.90
28837;DHT22;50669;50.982;11.022;2023-01-28T10:00:16;1.70;99.90
28837;DHT22;50669;50.982;11.022;2023-01-28T10:05:51;1.80;99.90
28837;DHT22;50669;50.982;11.022;2023-01-28T10:22:38;1.70;99.90
28837;DHT22;50669;50.982;11.022;2023-01-28T10:25:20;1.70;99.90
28837;DHT22;50669;50.982;11.022;2023-01-28T10:27:48;1.70;99.90
28837;DHT22;50669;50.982;11.022;2023-01-28T10:30:16;1.80;99.90
28837;DHT22;50669;50.982;11.022;2023-01-28T10:32:52;1.80;99.90
28837;DHT22;50669;50.982;11.022;2023-01-28T10:35:19;1.80;99.90
28837;DHT22;50669;50.982;11.022;2023-01-28T10:37:51;1.80;99.90
28837;DHT22;50669;50.982;11.022;2023-01-28T10:40:18;1.80;99.90
28837;DHT22;50669;50.982;11.022;2023-01-28T10:42:46;1.90;99.90
28837;DHT22;50669;50.982;11.022;2023-01-28T10:45:45;1.90;99.90
28837;DHT22;50669;50.982;11.022;2023-01-28T10:48:29;2.00;99.90
28837;DHT22;50669;50.982;11.022;2023-01-28T10:50:56;1.90;99.90
28837;DHT22;50669;50.982;11.022;2023-01-28T10:53:36;1.90;99.90
28837;DHT22;50669;50.982;11.022;2023-01-28T10:56:13;1.90;99.90
28837;DHT22;50669;50.982;11.022;2023-01-28T11:01:39;1.90;99.90
28837;DHT22;50669;50.982;11.022;2023-01-28T11:04:35;2.00;99.90
28837;DHT22;50669;50.982;11.022;2023-01-28T11:07:04;2.10;99.90
28837;DHT22;50669;50.982;11.022;2023-01-28T11:09:33;2.10;99.90
28837;DHT22;50669;50.982;11.022;2023-01-28T11:12:18;2.10;99.90
28837;DHT22;50669;50.982;11.022;2023-01-28T11:14:58;2.00;99.90
28837;DHT22;50669;50.982;11.022;2023-01-28T11:17:29;2.10;99.90
28837;DHT22;50669;50.982;11.022;2023-01-28T11:19:58;2.10;99.90
28837;DHT22;50669;50.982;11.022;2023-01-28T11:22:51;2.20;99.90
28837;DHT22;50669;50.982;11.022;2023-01-28T11:27:53;2.30;99.90
28837;DHT22;50669;50.982;11.022;2023-01-28T11:30:22;2.30;99.90
28837;DHT22;50669;50.982;11.022;2023-01-28T11:33:43;2.40;99.90
28837;DHT22;50669;50.982;11.022;2023-01-28T11:35:56;2.40;99.90
28837;DHT22;50669;50.982;11.022;2023-01-28T11:38:25;2.50;99.90
28837;DHT22;50669;50.982;11.022;2023-01-28T11:40:57;2.40;99.90
28837;DHT22;50669;50.982;11.022;2023-01-28T11:43:27;2.20;99.90
28837;DHT22;50669;50.982;11.022;2023-01-28T11:49:16;1.90;99.90
28837;DHT22;50669;50.982;11.022;2023-01-28T11:57:37;1.90;99.90
28837;DHT22;50669;50.982;11.022;2023-01-28T12:08:52;2.10;99.90
28837;DHT22;50669;50.982;11.022;2023-01-28T12:14:18;2.10;99.90
28837;DHT22;50669;50.982;11.022;2023-01-28T12:18:02;2.00;99.90
28837;DHT22;50669;50.982;11.022;2023-01-28T12:20:27;2.00;99.90
28837;DHT22;50669;50.982;11.022;2023-01-28T12:23:16;1.90;99.90
28837;DHT22;50669;50.982;11.022;2023-01-28T12:25:54;1.90;99.90
28837;DHT22;50669;50.982;11.022;2023-01-28T12:43:13;1.80;99.90
28837;DHT22;50669;50.982;11.022;2023-01-28T12:48:53;1.80;99.90
28837;DHT22;50669;50.982;11.022;2023-01-28T12:51:30;1.80;99.90
28837;DHT22;50669;50.982;11.022;2023-01-28T12:56:39;1.80;99.90
28837;DHT22;50669;50.982;11.022;2023-01-28T13:02:14;1.90;99.90
28837;DHT22;50669;50.982;11.022;2023-01-28T13:05:04;1.90;99.90
28837;DHT22;50669;50.982;11.022;2023-01-28T13:10:18;1.80;99.90
28837;DHT22;50669;50.982;11.022;2023-01-28T13:12:47;1.80;99.90
28837;DHT22;50669;50.982;11.022;2023-01-28T13:15:15;1.80;99.90
28837;DHT22;50669;50.982;11.022;2023-01-28T13:18:03;1.80;99.90
28837;DHT22;50669;50.982;11.022;2023-01-28T13:20:45;1.90;99.90
28837;DHT22;50669;50.982;11.022;2023-01-28T13:23:36;1.90;99.90
28837;DHT22;50669;50.982;11.022;2023-01-28T13:28:52;1.90;99.90
28837;DHT22;50669;50.982;11.022;2023-01-28T13:31:22;1.90;99.90
28837;DHT22;50669;50.982;11.022;2023-01-28T13:36:42;1.70;99.90
28837;DHT22;50669;50.982;11.022;2023-01-28T13:39:21;1.70;99.90
28837;DHT22;50669;50.982;11.022;2023-01-28T13:41:49;1.70;99.90
28837;DHT22;50669;50.982;11.022;2023-01-28T13:46:50;1.60;99.90
28837;DHT22;50669;50.982;11.022;2023-01-28T13:49:23;1.70;99.90
28837;DHT22;50669;50.982;11.022;2023-01-28T13:54:37;1.70;99.90
28837;DHT22;50669;50.982;11.022;2023-01-28T14:05:59;1.70;99.90
28837;DHT22;50669;50.982;11.022;2023-01-28T14:19:32;1.80;99.90
28837;DHT22;50669;50.982;11.022;2023-01-28T14:22:06;1.80;99.90
28837;DHT22;50669;50.982;11.022;2023-01-28T14:24:32;1.80;99.90
28837;DHT22;50669;50.982;11.022;2023-01-28T14:27:12;1.80;99.90
28837;DHT22;50669;50.982;11.022;2023-01-28T14:32:25;1.90;99.90
28837;DHT22;50669;50.982;11.022;2023-01-28T14:34:53;1.80;99.90
28837;DHT22;50669;50.982;11.022;2023-01-28T14:37:23;1.80;99.90
28837;DHT22;50669;50.982;11.022;2023-01-28T14:42:31;1.80;99.90
28837;DHT22;50669;50.982;11.022;2023-01-28T14:58:42;1.80;99.90
28837;DHT22;50669;50.982;11.022;2023-01-28T15:01:28;1.80;99.90
28837;DHT22;50669;50.982;11.022;2023-01-28T15:03:54;1.80;99.90
28837;DHT22;50669;50.982;11.022;2023-01-28T15:06:24;1.70;99.90
28837;DHT22;50669;50.982;11.022;2023-01-28T15:09:05;1.70;99.90
28837;DHT22;50669;50.982;11.022;2023-01-28T15:11:35;1.60;99.90
28837;DHT22;50669;50.982;11.022;2023-01-28T15:14:01;1.60;99.90
28837;DHT22;50669;50.982;11.022;2023-01-28T15:16:28;1.60;99.90
28837;DHT22;50669;50.982;11.022;2023-01-28T15:18:58;1.60;99.90
28837;DHT22;50669;50.982;11.022;2023-01-28T15:21:26;1.60;99.90
28837;DHT22;50669;50.982;11.022;2023-01-28T15:23:56;1.40;99.90
28837;DHT22;50669;50.982;11.022;2023-01-28T15:26:29;1.40;99.90
28837;DHT22;50669;50.982;11.022;2023-01-28T15:28:56;1.40;99.90
28837;DHT22;50669;50.982;11.022;2023-01-28T15:31:27;1.20;99.90
28837;DHT22;50669;50.982;11.022;2023-01-28T15:34:09;1.20;99.90
28837;DHT22;50669;50.982;11.022;2023-01-28T15:36:36;1.20;99.90
28837;DHT22;50669;50.982;11.022;2023-01-28T15:39:11;1.30;99.90
28837;DHT22;50669;50.982;11.022;2023-01-28T15:41:43;1.30;99.90
28837;DHT22;50669;50.982;11.022;2023-01-28T15:44:17;1.30;99.90
28837;DHT22;50669;50.982;11.022;2023-01-28T15:46:48;1.40;99.90
28837;DHT22;50669;50.982;11.022;2023-01-28T15:49:17;1.40;99.90
28837;DHT22;50669;50.982;11.022;2023-01-28T15:51:47;1.30;99.90
28837;DHT22;50669;50.982;11.022;2023-01-28T15:54:15;1.30;99.90
28837;DHT22;50669;50.982;11.022;2023-01-28T15:56:41;1.30;99.90
28837;DHT22;50669;50.982;11.022;2023-01-28T15:59:36;1.20;99.90
28837;DHT22;50669;50.982;11.022;2023-01-28T16:02:18;1.20;99.90
28837;DHT22;50669;50.982;11.022;2023-01-28T16:04:57;1.20;99.90
28837;DHT22;50669;50.982;11.022;2023-01-28T16:07:28;1.10;99.90
28837;DHT22;50669;50.982;11.022;2023-01-28T16:09:56;1.20;99.90
28837;DHT22;50669;50.982;11.022;2023-01-28T16:12:23;1.20;99.90
28837;DHT22;50669;50.982;11.022;2023-01-28T16:14:57;1.30;99.90
28837;DHT22;50669;50.982;11.022;2023-01-28T16:17:28;1.30;99.90
28837;DHT22;50669;50.982;11.022;2023-01-28T16:20:03;1.30;99.90
28837;DHT22;50669;50.982;11.022;2023-01-28T16:22:35;1.20;99.90
28837;DHT22;50669;50.982;11.022;2023-01-28T16:25:03;1.20;99.90
28837;DHT22;50669;50.982;11.022;2023-01-28T16:27:47;1.20;99.90
28837;DHT22;50669;50.982;11.022;2023-01-28T16:30:14;1.10;99.90
28837;DHT22;50669;50.982;11.022;2023-01-28T16:32:40;1.00;99.90
28837;DHT22;50669;50.982;11.022;2023-01-28T16:35:14;1.00;99.90
28837;DHT22;50669;50.982;11.022;2023-01-28T16:37:43;1.00;99.90
28837;DHT22;50669;50.982;11.022;2023-01-28T16:40:13;1.00;99.90
28837;DHT22;50669;50.982;11.022;2023-01-28T16:42:42;1.00;99.90
28837;DHT22;50669;50.982;11.022;2023-01-28T16:45:22;1.00;99.90
28837;DHT22;50669;50.982;11.022;2023-01-28T16:47:49;1.10;99.90
28837;DHT22;50669;50.982;11.022;2023-01-28T16:50:18;1.10;99.90
28837;DHT22;50669;50.982;11.022;2023-01-28T16:52:47;1.10;99.90
28837;DHT22;50669;50.982;11.022;2023-01-28T16:55:18;1.10;99.90
28837;DHT22;50669;50.982;11.022;2023-01-28T16:57:44;1.20;99.90
28837;DHT22;50669;50.982;11.022;2023-01-28T17:02:45;1.20;99.90
28837;DHT22;50669;50.982;11.022;2023-01-28T17:05:11;1.20;99.90
28837;DHT22;50669;50.982;11.022;2023-01-28T17:07:40;1.20;99.90
28837;DHT22;50669;50.982;11.022;2023-01-28T17:10:07;1.10;99.90
28837;DHT22;50669;50.982;11.022;2023-01-28T17:12:35;1.20;99.90
28837;DHT22;50669;50.982;11.022;2023-01-28T17:15:06;1.10;99.90
28837;DHT22;50669;50.982;11.022;2023-01-28T17:17:32;1.20;99.90
28837;DHT22;50669;50.982;11.022;2023-01-28T17:20:00;1.10;99.90
28837;DHT22;50669;50.982;11.022;2023-01-28T17:22:26;1.10;99.90
28837;DHT22;50669;50.982;11.022;2023-01-28T17:24:52;1.00;99.90
28837;DHT22;50669;50.982;11.022;2023-01-28T17:27:17;0.90;99.90
28837;DHT22;50669;50.982;11.022;2023-01-28T17:29:43;0.90;99.90
28837;DHT22;50669;50.982;11.022;2023-01-28T17:32:09;0.90;99.90
28837;DHT22;50669;50.982;11.022;2023-01-28T17:34:34;0.80;99.90
28837;DHT22;50669;50.982;11.022;2023-01-28T17:37:00;0.90;99.90
28837;DHT22;50669;50.982;11.022;2023-01-28T17:39:25;0.90;99.90
28837;DHT22;50669;50.982;11.022;2023-01-28T17:41:53;0.80;99.90
28837;DHT22;50669;50.982;11.022;2023-01-28T17:44:22;0.90;99.90
28837;DHT22;50669;50.982;11.022;2023-01-28T17:46:48;0.80;99.90
28837;DHT22;50669;50.982;11.022;2023-01-28T17:49:14;0.80;99.90
28837;DHT22;50669;50.982;11.022;2023-01-28T17:51:40;0.80;99.90
28837;DHT22;50669;50.982;11.022;2023-01-28T17:54:05;0.80;99.90
28837;DHT22;50669;50.982;11.022;2023-01-28T17:56:33;0.80;99.90
28837;DHT22;50669;50.982;11.022;2023-01-28T17:59:01;0.80;99.90
28837;DHT22;50669;50.982;11.022;2023-01-28T18:01:31;0.80;99.90
28837;DHT22;50669;50.982;11.022;2023-01-28T18:03:57;0.80;99.90
28837;DHT22;50669;50.982;11.022;2023-01-28T18:06:23;0.90;99.90
28837;DHT22;50669;50.982;11.022;2023-01-28T18:08:51;0.90;99.90
28837;DHT22;50669;50.982;11.022;2023-01-28T18:11:18;0.90;99.90
28837;DHT22;50669;50.982;11.022;2023-01-28T18:13:46;0.80;99.90
28837;DHT22;50669;50.982;11.022;2023-01-28T18:16:16;0.90;99.90
28837;DHT22;50669;50.982;11.022;2023-01-28T18:18:46;0.90;99.90
28837;DHT22;50669;50.982;11.022;2023-01-28T18:24:04;0.90;99.90
28837;DHT22;50669;50.982;11.022;2023-01-28T18:26:32;0.90;99.90
28837;DHT22;50669;50.982;11.022;2023-01-28T18:28:58;0.80;99.90